Time;durP1;ratioP1;P1;durP2;ratioP2;P2;SDS_P1;SDS_P2;PMS_P1;PMS_P2;Temp;Humidity;BMP_temperature;BMP_pressure;BME280_temperature;BME280_humidity;BME280_pressure;Samples;Min_cycle;Max_cycle;Signal;HPM_P1;HPM_P2
2022/06/09 00:00:32;;;;;;;1.95;0.80;;;13.10;99.90;;;;;;6149124;23;20021;-84
2022/06/09 00:03:31;;;;;;;5.05;1.00;;;13.10;99.90;;;;;;6150116;23;20036;-84
2022/06/09 00:06:24;;;;;;;1.85;0.98;;;13.10;99.90;;;;;;6149229;23;20025;-83
2022/06/09 00:09:15;;;;;;;2.65;0.90;;;13.10;99.90;;;;;;6127157;23;20393;-84
2022/06/09 00:12:03;;;;;;;2.28;0.90;;;13.00;99.90;;;;;;6148793;23;20033;-85
2022/06/09 00:14:52;;;;;;;3.28;1.33;;;12.90;99.90;;;;;;6149734;23;20140;-84
2022/06/09 00:17:43;;;;;;;2.55;1.33;;;12.90;99.90;;;;;;6148924;23;20022;-83
2022/06/09 00:20:33;;;;;;;2.83;1.50;;;12.90;99.90;;;;;;6148534;23;20382;-82
2022/06/09 00:23:20;;;;;;;7.68;1.50;;;12.80;99.90;;;;;;6150527;23;20095;-83
2022/06/09 00:26:08;;;;;;;7.10;1.33;;;12.80;99.90;;;;;;6127373;23;20576;-83
2022/06/09 00:28:55;;;;;;;3.88;1.67;;;12.70;99.90;;;;;;6129556;23;20025;-82
2022/06/09 00:31:43;;;;;;;4.43;1.50;;;12.70;99.90;;;;;;6150053;23;20029;-82
2022/06/09 00:34:32;;;;;;;4.38;1.58;;;12.60;99.90;;;;;;6149216;23;20025;-82
2022/06/09 00:37:19;;;;;;;4.68;1.50;;;12.60;99.90;;;;;;6148754;23;20025;-84
2022/06/09 00:40:12;;;;;;;3.28;1.45;;;12.50;99.90;;;;;;6128348;23;20060;-83
2022/06/09 00:43:06;;;;;;;2.10;1.30;;;12.40;99.90;;;;;;6127868;23;20114;-83
2022/06/09 00:46:03;;;;;;;3.20;1.60;;;12.50;99.90;;;;;;6127367;23;20029;-84
2022/06/09 00:48:55;;;;;;;2.75;1.45;;;12.40;99.90;;;;;;6148321;23;20393;-83
2022/06/09 00:51:49;;;;;;;4.82;1.50;;;12.40;99.90;;;;;;6148613;23;20056;-83
2022/06/09 00:54:43;;;;;;;3.00;1.58;;;12.40;99.90;;;;;;6148908;23;20033;-83
2022/06/09 00:57:37;;;;;;;1.80;1.40;;;12.40;99.90;;;;;;6148736;23;20025;-83
2022/06/09 01:00:35;;;;;;;1.55;1.45;;;12.40;99.90;;;;;;6150860;23;20300;-82
2022/06/09 01:03:30;;;;;;;2.15;1.75;;;12.40;99.90;;;;;;6147900;23;20032;-84
2022/06/09 01:06:23;;;;;;;3.35;1.88;;;12.40;99.90;;;;;;6150456;23;20074;-82
2022/06/09 01:09:12;;;;;;;;;;;12.40;99.90;;;;;;6129724;23;20045;-82
2022/06/09 01:11:59;;;;;;;3.28;1.60;;;12.40;99.90;;;;;;6150513;23;20256;-83
2022/06/09 01:14:49;;;;;;;4.10;1.77;;;12.40;99.90;;;;;;6151043;23;20086;-83
2022/06/09 01:17:49;;;;;;;2.78;2.03;;;12.40;99.90;;;;;;6149028;23;20021;-84
2022/06/09 01:20:46;;;;;;;2.88;2.10;;;12.40;99.90;;;;;;6127175;23;20026;-84
2022/06/09 01:23:33;;;;;;;5.28;2.80;;;12.40;99.90;;;;;;6127877;23;20032;-83
2022/06/09 01:26:42;;;;;;;3.05;2.25;;;12.40;99.90;;;;;;6148703;23;20045;-83
2022/06/09 01:29:50;;;;;;;4.25;2.15;;;12.40;99.90;;;;;;6150635;23;20058;-82
2022/06/09 01:32:43;;;;;;;3.28;2.33;;;12.30;99.90;;;;;;6148903;23;20133;-82
2022/06/09 01:35:47;;;;;;;2.30;2.10;;;12.30;99.90;;;;;;6148734;23;20113;-84
2022/06/09 01:38:50;;;;;;;2.40;2.10;;;12.30;99.90;;;;;;6148722;23;20025;-84
2022/06/09 01:41:48;;;;;;;3.60;2.63;;;12.30;99.90;;;;;;6128077;23;20048;-84
2022/06/09 01:44:35;;;;;;;4.70;2.58;;;12.30;99.90;;;;;;6149071;23;20041;-83
2022/06/09 01:47:30;;;;;;;2.35;2.15;;;12.20;99.90;;;;;;6150985;23;20032;-84
2022/06/09 01:50:30;;;;;;;3.08;1.95;;;12.30;99.90;;;;;;6148617;23;20122;-84
2022/06/09 01:53:26;;;;;;;2.58;2.22;;;12.30;99.90;;;;;;6148633;23;20051;-84
2022/06/09 01:56:28;;;;;;;4.32;2.10;;;12.30;99.90;;;;;;6150578;23;20022;-84
2022/06/09 01:59:24;;;;;;;2.75;2.30;;;12.30;99.90;;;;;;6147895;23;20040;-83
2022/06/09 02:02:21;;;;;;;2.95;2.00;;;12.30;99.90;;;;;;6148446;23;20350;-84
2022/06/09 02:05:18;;;;;;;3.13;2.33;;;12.20;99.90;;;;;;6149409;23;20026;-84
2022/06/09 02:08:11;;;;;;;7.13;3.30;;;12.20;99.90;;;;;;6148685;23;20111;-84
2022/06/09 02:10:59;;;;;;;;;;;12.30;99.90;;;;;;6129475;23;20409;-83
2022/06/09 02:13:50;;;;;;;5.57;2.85;;;12.20;99.90;;;;;;6129901;23;20307;-83
2022/06/09 02:16:39;;;;;;;5.30;2.88;;;12.20;99.90;;;;;;6129255;23;20079;-84
2022/06/09 02:19:29;;;;;;;4.20;2.20;;;12.20;99.90;;;;;;6150546;23;20354;-83
2022/06/09 02:22:16;;;;;;;3.10;2.80;;;12.20;99.90;;;;;;6150359;23;20033;-84
2022/06/09 02:25:07;;;;;;;5.68;2.60;;;12.20;99.90;;;;;;6150328;23;20078;-83
2022/06/09 02:27:54;;;;;;;3.88;2.45;;;12.10;99.90;;;;;;6149523;23;20463;-83
2022/06/09 02:30:41;;;;;;;4.63;2.78;;;12.10;99.90;;;;;;6148745;23;20029;-83
2022/06/09 02:33:37;;;;;;;3.17;2.58;;;12.10;99.90;;;;;;6149180;23;20040;-83
2022/06/09 02:36:25;;;;;;;5.40;2.63;;;12.00;99.90;;;;;;6130212;23;20061;-83
2022/06/09 02:39:14;;;;;;;3.15;2.25;;;12.00;99.90;;;;;;6149133;23;20375;-83
2022/06/09 02:42:01;;;;;;;3.72;2.60;;;12.10;99.90;;;;;;6148191;23;20082;-82
2022/06/09 02:44:51;;;;;;;3.13;2.63;;;12.00;99.90;;;;;;6128521;23;20022;-84
2022/06/09 02:47:45;;;;;;;3.85;2.50;;;12.00;99.90;;;;;;6150131;23;20048;-83
2022/06/09 02:50:36;;;;;;;3.70;3.03;;;12.00;99.90;;;;;;6148611;23;20052;-83
2022/06/09 02:53:30;;;;;;;8.52;3.20;;;12.00;99.90;;;;;;6149331;23;20462;-83
2022/06/09 02:56:21;;;;;;;2.67;2.38;;;12.00;99.90;;;;;;6128334;23;20033;-82
2022/06/09 02:59:18;;;;;;;4.38;2.90;;;12.00;99.90;;;;;;6129340;23;20037;-83
2022/06/09 03:02:05;;;;;;;4.57;2.80;;;12.00;99.90;;;;;;6151482;23;20070;-82
2022/06/09 03:04:55;;;;;;;5.22;2.50;;;12.00;99.90;;;;;;6150591;23;20025;-80
2022/06/09 03:07:45;;;;;;;4.00;2.67;;;12.00;99.90;;;;;;6153196;23;20029;-83
2022/06/09 03:10:33;;;;;;;4.80;2.42;;;12.00;99.90;;;;;;6128117;23;20083;-83
2022/06/09 03:13:22;;;;;;;5.90;2.60;;;11.90;99.90;;;;;;6148463;23;20425;-83
2022/06/09 03:16:20;;;;;;;3.35;3.05;;;11.90;99.90;;;;;;6127938;23;20033;-83
2022/06/09 03:19:09;;;;;;;3.97;2.88;;;11.90;99.90;;;;;;6150686;23;20408;-84
2022/06/09 03:22:00;;;;;;;6.35;3.03;;;12.00;99.90;;;;;;6130424;23;20037;-83
2022/06/09 03:24:51;;;;;;;3.90;3.00;;;12.00;99.90;;;;;;6148347;23;20026;-83
2022/06/09 03:27:39;;;;;;;5.68;4.18;;;12.00;99.90;;;;;;6147614;23;20025;-83
2022/06/09 03:30:31;;;;;;;8.35;3.75;;;12.00;99.90;;;;;;6148021;23;20036;-83
2022/06/09 03:33:25;;;;;;;8.45;4.13;;;11.90;99.90;;;;;;6146303;23;20029;-83
2022/06/09 03:36:15;;;;;;;7.05;4.50;;;11.90;99.90;;;;;;6148813;23;20098;-83
2022/06/09 03:39:02;;;;;;;6.30;4.43;;;11.90;99.90;;;;;;6126430;23;20298;-82
2022/06/09 03:41:49;;;;;;;4.30;3.90;;;11.90;99.90;;;;;;6149892;23;20037;-83
2022/06/09 03:44:42;;;;;;;8.32;5.53;;;12.00;99.90;;;;;;6129465;23;20030;-83
2022/06/09 03:47:34;;;;;;;9.43;5.05;;;11.90;99.90;;;;;;6125334;23;20029;-82
2022/06/09 03:50:29;;;;;;;7.68;5.05;;;11.90;99.90;;;;;;6127530;23;20030;-83
2022/06/09 03:53:24;;;;;;;8.77;4.40;;;11.90;99.90;;;;;;6147235;23;20037;-82
2022/06/09 03:56:16;;;;;;;6.40;4.30;;;11.80;99.90;;;;;;6150164;23;20057;-83
2022/06/09 03:59:05;;;;;;;6.30;4.53;;;11.80;99.90;;;;;;6148148;23;20022;-83
2022/06/09 04:02:23;;;;;;;6.20;5.00;;;11.80;99.90;;;;;;6148182;23;20093;-83
2022/06/09 04:05:28;;;;;;;12.80;5.88;;;11.80;99.90;;;;;;6002874;23;20387;-84
2022/06/09 04:08:17;;;;;;;11.88;5.47;;;11.80;99.90;;;;;;5977522;23;20071;-84
2022/06/09 04:11:05;;;;;;;9.73;5.15;;;11.90;99.90;;;;;;5974096;23;20028;-83
2022/06/09 04:35:12;;;;;;;10.95;6.35;;;11.80;99.90;;;;;;5975098;23;20011;-84
2022/06/09 04:38:00;;;;;;;10.15;5.95;;;11.80;99.90;;;;;;5970365;23;20036;-82
2022/06/09 04:40:47;;;;;;;12.18;5.82;;;11.80;99.90;;;;;;5958508;23;20123;-81
2022/06/09 04:43:34;;;;;;;10.20;5.10;;;11.80;99.90;;;;;;6094977;23;20053;-80
2022/06/09 04:46:23;;;;;;;10.13;4.28;;;11.80;99.90;;;;;;6117486;23;20076;-80
2022/06/09 04:49:10;;;;;;;10.38;5.35;;;11.80;99.90;;;;;;6119335;23;20259;-80
2022/06/09 04:52:00;;;;;;;7.93;4.68;;;11.90;99.90;;;;;;6118038;23;20034;-80
2022/06/09 04:54:47;;;;;;;9.15;4.60;;;11.90;99.90;;;;;;6098018;23;20440;-81
2022/06/09 04:57:36;;;;;;;14.57;4.53;;;11.90;99.90;;;;;;6119878;23;20022;-80
2022/06/09 05:00:26;;;;;;;9.70;4.78;;;11.80;99.90;;;;;;6120576;23;20398;-82
2022/06/09 05:03:16;;;;;;;7.88;4.07;;;11.80;99.90;;;;;;6120263;23;20362;-81
2022/06/09 05:06:03;;;;;;;7.28;4.45;;;11.80;99.90;;;;;;6102760;23;20401;-80
2022/06/09 05:08:53;;;;;;;4.63;3.95;;;11.90;99.90;;;;;;6202910;23;20029;-80
2022/06/09 05:11:40;;;;;;;9.43;3.95;;;11.90;99.90;;;;;;6120325;23;20025;-81
2022/06/09 05:14:27;;;;;;;8.73;4.15;;;12.00;99.90;;;;;;6121121;23;20042;-80
2022/06/09 05:17:17;;;;;;;8.73;3.25;;;12.10;99.90;;;;;;6118918;23;20259;-80
2022/06/09 05:20:05;;;;;;;6.40;2.67;;;12.20;99.90;;;;;;6118285;23;20091;-80
2022/06/09 05:22:54;;;;;;;6.40;2.65;;;12.40;99.90;;;;;;6119508;23;20026;-82
2022/06/09 05:25:41;;;;;;;5.70;2.20;;;12.60;99.90;;;;;;6204126;23;20115;-81
2022/06/09 05:28:34;;;;;;;6.72;2.35;;;12.80;99.90;;;;;;6119504;23;20092;-81
2022/06/09 05:31:23;;;;;;;4.63;2.22;;;12.90;99.90;;;;;;6207071;22;20026;-81
2022/06/09 05:34:13;;;;;;;4.30;2.08;;;12.90;99.90;;;;;;6118828;23;20101;-81
2022/06/09 05:37:00;;;;;;;9.48;2.33;;;12.90;99.90;;;;;;6213820;23;20030;-80
2022/06/09 05:46:00;;;;;;;6.68;1.92;;;13.00;99.90;;;;;;6128107;22;20342;-81
2022/06/09 05:48:48;;;;;;;18.23;9.60;;;13.00;99.90;;;;;;6120248;23;20330;-81
2022/06/09 05:51:36;;;;;;;5.55;1.92;;;13.00;99.90;;;;;;6119762;23;20034;-81
2022/06/09 05:54:27;;;;;;;2.78;1.58;;;13.10;99.90;;;;;;6206172;22;20038;-83
2022/06/09 05:57:14;;;;;;;6.88;2.05;;;13.20;99.90;;;;;;6120932;23;20084;-83
2022/06/09 06:00:03;;;;;;;8.13;2.20;;;13.30;99.90;;;;;;6122093;23;20057;-84
2022/06/09 06:02:50;;;;;;;6.50;1.60;;;13.30;99.90;;;;;;6202632;23;20037;-82
2022/06/09 06:08:44;;;;;;;8.35;1.83;;;13.40;99.90;;;;;;6118987;22;20030;-83
2022/06/09 06:11:34;;;;;;;8.70;2.05;;;13.40;99.90;;;;;;6204376;23;20026;-83
2022/06/09 06:14:23;;;;;;;8.77;1.98;;;13.40;99.90;;;;;;6123272;23;20025;-83
2022/06/09 06:17:10;;;;;;;8.82;2.45;;;13.50;99.90;;;;;;6206393;22;20280;-83
2022/06/09 06:20:00;;;;;;;7.05;1.60;;;13.50;99.90;;;;;;6121551;23;20321;-83
2022/06/09 06:22:47;;;;;;;12.38;2.35;;;13.50;99.90;;;;;;6121261;23;20021;-84
2022/06/09 06:25:36;;;;;;;11.13;2.30;;;13.60;99.90;;;;;;6121912;23;20136;-82
2022/06/09 06:28:25;;;;;;;10.85;2.13;;;13.80;99.90;;;;;;6119519;23;20034;-82
2022/06/09 06:31:16;;;;;;;;;;;13.90;99.90;;;;;;6123270;23;20331;-80
2022/06/09 06:34:03;;;;;;;5.50;1.38;;;14.10;99.90;;;;;;6125704;23;19947;-83
2022/06/09 06:36:51;;;;;;;6.78;1.67;;;14.50;99.90;;;;;;6203952;23;20421;-82
2022/06/09 06:39:38;;;;;;;6.50;1.48;;;14.60;99.90;;;;;;6121129;23;20088;-84
2022/06/09 06:42:25;;;;;;;9.15;1.50;;;14.90;99.90;;;;;;6119421;23;20044;-83
2022/06/09 06:45:16;;;;;;;8.10;1.75;;;15.50;99.90;;;;;;6121895;23;20030;-84
2022/06/09 06:48:05;;;;;;;8.02;1.60;;;16.00;99.90;;;;;;6206477;22;20037;-84
2022/06/09 06:50:52;;;;;;;9.10;1.77;;;15.90;99.90;;;;;;6184368;23;20119;-84
2022/06/09 06:53:40;;;;;;;9.32;1.70;;;15.20;99.90;;;;;;6118831;23;20356;-81
2022/06/09 06:56:27;;;;;;;9.57;1.40;;;14.70;99.90;;;;;;6118189;23;20037;-82
2022/06/09 06:59:17;;;;;;;7.78;1.55;;;14.30;99.90;;;;;;6121743;23;20033;-82
2022/06/09 07:02:05;;;;;;;6.78;1.67;;;13.90;99.90;;;;;;6205604;23;20026;-84
2022/06/09 07:04:55;;;;;;;8.57;1.70;;;13.70;99.90;;;;;;6119996;23;20026;-84
2022/06/09 07:07:42;;;;;;;10.80;1.80;;;13.70;99.90;;;;;;6175321;23;20464;-86
2022/06/09 07:10:33;;;;;;;7.68;1.45;;;14.30;99.90;;;;;;6128474;23;20094;-86
2022/06/09 07:13:21;;;;;;;7.63;1.70;;;15.00;99.90;;;;;;6148279;23;20018;-86
2022/06/09 07:16:09;;;;;;;7.88;1.30;;;15.80;99.90;;;;;;6128960;23;20033;-85
2022/06/09 07:19:16;;;;;;;6.85;1.67;;;16.20;99.90;;;;;;6150380;23;20026;-85
2022/06/09 07:22:06;;;;;;;8.40;1.83;;;16.30;99.90;;;;;;6130212;23;20022;-87
2022/06/09 07:24:57;;;;;;;6.45;1.30;;;16.80;99.90;;;;;;6148400;23;20424;-88
2022/06/09 07:27:51;;;;;;;7.00;1.33;;;17.20;99.90;;;;;;6151530;23;20166;-89
2022/06/09 07:30:40;;;;;;;5.43;1.02;;;17.60;99.90;;;;;;6128499;23;20036;-88
2022/06/09 07:33:30;;;;;;;4.47;1.02;;;18.00;99.90;;;;;;6127718;23;20044;-87
2022/06/09 07:36:25;;;;;;;6.70;1.42;;;17.90;99.90;;;;;;6128548;23;20102;-87
2022/06/09 07:39:24;;;;;;;5.75;1.30;;;18.00;99.90;;;;;;6129429;23;20100;-89
2022/06/09 07:42:22;;;;;;;9.80;1.95;;;18.00;99.90;;;;;;6151216;23;20045;-85
2022/06/09 07:45:18;;;;;;;8.23;1.38;;;18.20;99.90;;;;;;6150509;23;20060;-88
2022/06/09 07:48:07;;;;;;;4.85;1.33;;;18.40;99.90;;;;;;6149959;23;20143;-86
2022/06/09 07:51:17;;;;;;;4.30;0.95;;;18.90;99.90;;;;;;6135167;23;20032;-86
2022/06/09 07:54:10;;;;;;;3.80;1.33;;;19.40;99.90;;;;;;6129433;23;20029;-85
2022/06/09 07:56:58;;;;;;;5.30;1.30;;;19.40;99.90;;;;;;6163074;23;20400;-84
2022/06/09 07:59:46;;;;;;;7.85;0.88;;;19.00;99.90;;;;;;6164846;23;20128;-84
2022/06/09 08:02:36;;;;;;;4.10;0.90;;;19.10;99.90;;;;;;6164509;23;20033;-84
2022/06/09 08:05:26;;;;;;;4.13;0.70;;;19.40;99.90;;;;;;6162541;23;20044;-86
2022/06/09 08:08:13;;;;;;;4.75;1.27;;;19.60;97.80;;;;;;6161994;23;20040;-86
2022/06/09 08:11:05;;;;;;;3.90;0.85;;;19.10;98.90;;;;;;6159997;23;20029;-85
2022/06/09 08:13:52;;;;;;;5.78;1.20;;;19.00;98.60;;;;;;6168839;23;20069;-85
2022/06/09 08:16:40;;;;;;;9.68;1.38;;;19.30;97.70;;;;;;6151805;23;20026;-84
2022/06/09 08:19:28;;;;;;;4.18;1.20;;;19.50;97.00;;;;;;6172433;23;20022;-82
2022/06/09 08:22:16;;;;;;;5.10;1.15;;;19.80;97.10;;;;;;6151008;23;20036;-83
2022/06/09 08:25:04;;;;;;;7.90;1.17;;;19.90;95.20;;;;;;6173899;23;20016;-79
2022/06/09 08:27:52;;;;;;;3.30;0.98;;;19.70;95.50;;;;;;6175140;23;20028;-89
2022/06/09 08:30:39;;;;;;;8.10;1.23;;;19.30;95.80;;;;;;6163192;23;20034;-87
2022/06/09 08:33:27;;;;;;;4.97;1.05;;;19.70;95.00;;;;;;6163152;23;20036;-86
2022/06/09 08:36:17;;;;;;;3.10;0.85;;;19.70;92.50;;;;;;6163875;23;20025;-88
2022/06/09 08:39:04;;;;;;;5.80;0.80;;;20.30;92.40;;;;;;6161840;23;20117;-85
2022/06/09 08:42:22;;;;;;;5.03;0.95;;;20.50;92.80;;;;;;6149732;23;20302;-85
2022/06/09 08:45:19;;;;;;;4.82;0.90;;;19.90;91.50;;;;;;6129716;23;20049;-87
2022/06/09 08:48:17;;;;;;;5.22;1.05;;;19.30;92.30;;;;;;6150422;23;20025;-87
2022/06/09 08:51:39;;;;;;;5.72;1.23;;;19.50;93.10;;;;;;6148878;23;20138;-87
2022/06/09 08:54:32;;;;;;;4.22;0.80;;;19.60;93.50;;;;;;6151036;23;20030;-83
2022/06/09 08:57:32;;;;;;;2.55;0.60;;;20.10;91.80;;;;;;6131512;23;20033;-90
2022/06/09 09:00:27;;;;;;;3.40;0.88;;;21.10;84.60;;;;;;6152063;23;20052;-86
2022/06/09 09:03:38;;;;;;;1.38;0.55;;;21.80;84.50;;;;;;6129152;23;20400;-89
2022/06/09 09:06:36;;;;;;;1.50;0.50;;;22.70;90.60;;;;;;6153045;23;20036;-88
2022/06/09 09:09:32;;;;;;;6.03;1.20;;;23.60;74.80;;;;;;6150176;23;20497;-85
2022/06/09 09:12:36;;;;;;;3.38;0.95;;;23.90;68.00;;;;;;6150735;23;20044;-86
2022/06/09 09:15:26;;;;;;;1.90;0.75;;;23.80;67.50;;;;;;6152011;23;20045;-86
2022/06/09 09:18:28;;;;;;;2.83;0.63;;;23.40;70.00;;;;;;6151847;23;20021;-84
2022/06/09 09:21:19;;;;;;;3.30;0.93;;;23.30;70.80;;;;;;6148983;23;20033;-86
2022/06/09 09:24:19;;;;;;;2.92;0.60;;;23.60;63.60;;;;;;6148501;23;20109;-84
2022/06/09 09:27:33;;;;;;;4.10;0.85;;;24.20;61.20;;;;;;6154911;23;20022;-85
2022/06/09 09:30:37;;;;;;;3.47;0.60;;;22.60;65.00;;;;;;6152897;23;20045;-86
2022/06/09 09:33:28;;;;;;;3.40;0.75;;;21.60;72.20;;;;;;6153828;23;20026;-86
2022/06/09 09:36:24;;;;;;;3.60;1.17;;;20.70;74.90;;;;;;6151095;23;20025;-84
2022/06/09 09:39:35;;;;;;;3.63;0.82;;;20.40;77.00;;;;;;6151270;23;20030;-87
2022/06/09 09:42:26;;;;;;;2.60;0.75;;;21.60;71.80;;;;;;6148676;23;20036;-84
2022/06/09 09:45:20;;;;;;;1.05;0.57;;;22.50;66.80;;;;;;6151802;23;20025;-84
2022/06/09 09:48:29;;;;;;;2.72;0.75;;;22.80;68.50;;;;;;6148810;23;20033;-85
2022/06/09 09:51:34;;;;;;;3.58;0.70;;;24.10;64.70;;;;;;6150349;23;20026;-86
2022/06/09 09:54:36;;;;;;;3.83;0.88;;;23.40;61.50;;;;;;6150154;23;20022;-86
2022/06/09 09:57:28;;;;;;;3.63;1.02;;;22.20;62.50;;;;;;6149162;23;20329;-84
2022/06/09 10:00:34;;;;;;;4.10;1.15;;;21.10;68.90;;;;;;6128582;23;20053;-82
2022/06/09 10:10:10;;;;;;;2.83;0.68;;;19.90;78.70;;;;;;6149693;23;20029;-84
2022/06/09 10:12:58;;;;;;;5.20;1.08;;;21.40;71.90;;;;;;6127343;23;20029;-88
2022/06/09 10:15:48;;;;;;;2.85;0.70;;;22.20;70.30;;;;;;6150738;23;20051;-84
2022/06/09 10:18:36;;;;;;;4.68;1.02;;;23.20;65.00;;;;;;6149294;23;20032;-85
2022/06/09 10:21:54;;;;;;;2.65;0.70;;;23.00;62.50;;;;;;6134665;23;20105;-85
2022/06/09 10:25:15;;;;;;;2.03;0.70;;;23.90;63.20;;;;;;6150499;23;20409;-84
2022/06/09 10:28:32;;;;;;;1.75;0.73;;;23.70;59.10;;;;;;6130230;23;20029;-84
2022/06/09 10:31:35;;;;;;;2.33;0.68;;;23.50;59.70;;;;;;6148790;23;20033;-85
2022/06/09 10:34:48;;;;;;;2.85;0.70;;;23.50;55.50;;;;;;6149423;23;20037;-86
2022/06/09 10:37:38;;;;;;;;;;;23.70;55.40;;;;;;6128902;23;20120;-82
2022/06/09 10:40:32;;;;;;;3.83;0.80;;;24.30;55.70;;;;;;6129838;23;19916;-84
2022/06/09 10:43:38;;;;;;;3.50;0.73;;;25.10;55.50;;;;;;6127918;23;20030;-83
2022/06/09 10:46:38;;;;;;;3.20;0.70;;;24.60;55.60;;;;;;6145316;23;20056;-84
2022/06/09 10:56:16;;;;;;;3.80;0.57;;;23.80;57.00;;;;;;6148913;23;20026;-85
2022/06/09 10:59:20;;;;;;;4.90;0.80;;;24.70;58.20;;;;;;6149341;23;20022;-84
2022/06/09 11:02:22;;;;;;;4.03;1.02;;;23.90;54.20;;;;;;6129090;23;20033;-83
2022/06/09 11:05:15;;;;;;;3.15;1.00;;;22.80;57.70;;;;;;6149008;23;20045;-84
2022/06/09 11:08:44;;;;;;;5.15;0.90;;;21.40;64.50;;;;;;6145295;23;20358;-84
2022/06/09 11:11:47;;;;;;;5.45;1.10;;;20.20;68.40;;;;;;6151981;23;20029;-86
2022/06/09 11:14:59;;;;;;;6.88;1.30;;;19.90;71.70;;;;;;6130553;23;20037;-84
2022/06/09 11:18:08;;;;;;;3.65;1.08;;;19.70;76.40;;;;;;6149209;23;20122;-85
2022/06/09 11:21:16;;;;;;;3.78;0.80;;;19.90;76.80;;;;;;6149478;23;20026;-89
2022/06/09 11:24:39;;;;;;;5.15;0.68;;;20.30;72.00;;;;;;6151456;23;20030;-84
2022/06/09 11:27:58;;;;;;;3.33;0.80;;;22.40;70.50;;;;;;6150817;23;20124;-85
2022/06/09 11:31:14;;;;;;;5.57;0.93;;;23.20;59.10;;;;;;6150479;23;20033;-85
2022/06/09 11:34:36;;;;;;;3.35;0.65;;;23.00;61.50;;;;;;6149540;23;20034;-85
2022/06/09 11:37:39;;;;;;;5.82;1.00;;;24.30;59.20;;;;;;6147491;23;20082;-87
2022/06/09 11:40:35;;;;;;;6.28;1.00;;;24.60;58.40;;;;;;6129744;23;20433;-85
2022/06/09 11:43:54;;;;;;;3.53;0.70;;;24.60;58.70;;;;;;6153307;23;20054;-84
2022/06/09 11:46:43;;;;;;;5.28;0.70;;;26.00;54.80;;;;;;6151212;23;20518;-84
2022/06/09 11:50:13;;;;;;;7.97;1.08;;;25.70;56.10;;;;;;6151539;23;20036;-87
2022/06/09 11:53:21;;;;;;;4.75;0.65;;;25.50;53.30;;;;;;6134731;23;20033;-85
2022/06/09 11:56:43;;;;;;;3.58;0.70;;;26.60;50.50;;;;;;6150881;23;20031;-85
2022/06/09 11:59:51;;;;;;;5.07;0.90;;;25.70;51.30;;;;;;6130948;23;20022;-85
2022/06/09 12:02:57;;;;;;;3.75;0.80;;;26.10;48.50;;;;;;6152584;23;20029;-86
2022/06/09 12:06:00;;;;;;;3.80;0.80;;;26.30;48.50;;;;;;6156023;23;20025;-86
2022/06/09 12:09:22;;;;;;;3.20;0.80;;;26.90;47.90;;;;;;6151961;23;20417;-82
2022/06/09 12:12:25;;;;;;;;;;;27.60;52.40;;;;;;6132810;23;20025;-84
2022/06/09 12:15:20;;;;;;;;;;;28.80;51.90;;;;;;6152442;23;20314;-87
2022/06/09 12:18:17;;;;;;;;;;;29.60;43.50;;;;;;6152140;23;19920;-86
2022/06/09 12:21:12;;;;;;;;;;;29.70;39.30;;;;;;6153167;23;19938;-87
2022/06/09 12:24:18;;;;;;;;;;;27.90;42.20;;;;;;6153125;23;19920;-87
2022/06/09 12:27:17;;;;;;;;;;;25.90;44.50;;;;;;6155010;23;20059;-84
2022/06/09 12:30:21;;;;;;;;;;;24.90;43.90;;;;;;6152475;23;19939;-86
2022/06/09 12:33:26;;;;;;;;;;;25.60;43.90;;;;;;6153064;23;19916;-87
2022/06/09 12:36:33;;;;;;;;;;;25.70;44.40;;;;;;6152174;23;19920;-83
2022/06/09 12:39:29;;;;;;;;;;;25.20;47.50;;;;;;6130616;23;19931;-86
2022/06/09 12:42:17;;;;;;;;;;;25.50;51.10;;;;;;6129830;23;20005;-83
2022/06/09 12:45:06;;;;;;;;;;;25.80;51.80;;;;;;6130588;23;19932;-86
2022/06/09 12:47:57;;;;;;;;;;;24.70;54.10;;;;;;6152641;23;20219;-88
2022/06/09 12:50:48;;;;;;;;;;;24.60;54.70;;;;;;6154121;23;20277;-87
2022/06/09 12:53:37;;;;;;;;;;;25.90;49.80;;;;;;6131653;23;20066;-88
2022/06/09 12:56:51;;;;;;;;;;;26.00;50.90;;;;;;6131232;23;19920;-87
2022/06/09 12:59:39;;;;;;;;;;;24.70;49.80;;;;;;6153869;23;20173;-85
2022/06/09 13:02:28;;;;;;;;;;;23.00;56.10;;;;;;6155328;23;19932;-87
2022/06/09 13:05:18;;;;;;;;;;;22.10;55.70;;;;;;6154495;23;19927;-88
2022/06/09 13:08:12;;;;;;;;;;;21.50;58.80;;;;;;6152452;23;19916;-90
2022/06/09 13:11:04;;;;;;;;;;;21.90;59.70;;;;;;6150390;23;19936;-85
2022/06/09 13:13:51;;;;;;;;;;;24.00;55.10;;;;;;6151444;23;19920;-87
2022/06/09 13:16:43;;;;;;;;;;;26.50;49.60;;;;;;6149748;23;19916;-85
2022/06/09 13:19:31;;;;;;;;;;;27.80;49.90;;;;;;6149607;23;20113;-84
2022/06/09 13:22:20;;;;;;;;;;;28.30;45.20;;;;;;6151375;23;19931;-85
2022/06/09 13:25:11;;;;;;;;;;;29.00;41.10;;;;;;6131380;23;20037;-88
2022/06/09 13:28:01;;;;;;;;;;;29.30;40.60;;;;;;6150964;23;19924;-87
2022/06/09 13:30:51;;;;;;;;;;;29.40;40.20;;;;;;6123526;23;19974;-88
2022/06/09 13:33:54;;;;;;;;;;;28.00;42.00;;;;;;6129095;23;19928;-86
2022/06/09 13:36:56;;;;;;;;;;;25.80;47.80;;;;;;6152485;23;19924;-86
2022/06/09 13:39:51;;;;;;;;;;;24.10;52.50;;;;;;6152200;23;19926;-84
2022/06/09 13:42:52;;;;;;;;;;;22.70;56.20;;;;;;6150608;23;19916;-85
2022/06/09 13:45:48;;;;;;;;;;;22.00;60.40;;;;;;6162122;23;19930;-87
2022/06/09 13:48:49;;;;;;;;;;;22.10;61.60;;;;;;6164051;23;19909;-89
2022/06/09 13:51:48;;;;;;;;;;;21.90;59.30;;;;;;6146032;23;19936;-84
2022/06/09 13:54:42;;;;;;;;;;;21.40;60.70;;;;;;6164546;23;20021;-88
2022/06/09 13:57:35;;;;;;;;;;;21.00;61.60;;;;;;6150201;23;19976;-83
2022/06/09 14:00:27;;;;;;;;;;;20.40;63.00;;;;;;6175278;23;19955;-81
2022/06/09 14:03:14;;;;;;;;;;;19.30;68.50;;;;;;6156322;23;19921;-86
2022/06/09 14:06:04;;;;;;;;;;;18.50;72.80;;;;;;6170774;23;19920;-87
2022/06/09 14:08:52;;;;;;;;;;;18.00;77.30;;;;;;6171828;23;19917;-86
2022/06/09 14:11:42;;;;;;;;;;;17.50;81.80;;;;;;6144110;23;19942;-88
2022/06/09 14:14:49;;;;;;;;;;;17.20;85.40;;;;;;6138144;23;19916;-89
2022/06/09 14:17:37;;;;;;;;;;;16.90;89.50;;;;;;6154241;23;19936;-88
2022/06/09 14:20:26;;;;;;;;;;;16.70;91.10;;;;;;6153863;23;19917;-89
2022/06/09 14:23:26;;;;;;;;;;;16.60;92.40;;;;;;6156881;23;20379;-86
2022/06/09 14:26:13;;;;;;;;;;;16.80;92.40;;;;;;6156051;23;19939;-88
2022/06/09 14:29:01;;;;;;;;;;;17.00;91.80;;;;;;6134496;23;19925;-86
2022/06/09 14:31:48;;;;;;;;;;;17.20;91.50;;;;;;6131461;23;19920;-84
2022/06/09 14:34:36;;;;;;;;;;;17.60;90.60;;;;;;6156122;23;19920;-83
2022/06/09 14:37:23;;;;;;;;;;;18.10;88.80;;;;;;6166542;23;19916;-87
2022/06/09 14:40:17;;;;;;;;;;;18.50;87.40;;;;;;6143729;23;19924;-86
2022/06/09 14:43:07;;;;;;;;;;;19.00;82.80;;;;;;6146292;23;19923;-85
2022/06/09 14:45:57;;;;;;;;;;;19.40;81.20;;;;;;6145115;23;19927;-86
2022/06/09 14:48:44;;;;;;;;;;;19.50;81.30;;;;;;6167098;22;19909;-84
2022/06/09 14:51:32;;;;;;;;;;;19.60;79.70;;;;;;6147449;23;19916;-87
2022/06/09 14:54:21;;;;;;;;;;;19.80;74.90;;;;;;6168295;23;19916;-89
2022/06/09 14:57:14;;;;;;;;;;;20.50;75.80;;;;;;6169810;22;19932;-85
2022/06/09 15:00:03;;;;;;;;;;;20.80;70.40;;;;;;6170617;22;19905;-85
2022/06/09 15:02:54;;;;;;;;;;;21.00;71.50;;;;;;6152253;22;19913;-84
2022/06/09 15:05:42;;;;;;;;;;;20.90;68.70;;;;;;6153822;22;19928;-85
2022/06/09 15:08:30;;;;;;;;;;;21.20;65.40;;;;;;6149351;23;19927;-87
2022/06/09 15:11:20;;;;;;;;;;;21.70;66.70;;;;;;6170168;22;19952;-86
2022/06/09 15:14:09;;;;;;;;;;;22.50;68.70;;;;;;6174138;22;20016;-85
2022/06/09 15:17:17;;;;;;;;;;;23.10;65.80;;;;;;6157679;22;19915;-85
2022/06/09 15:20:04;;;;;;;;;;;23.50;60.30;;;;;;6153642;22;19924;-85
2022/06/09 15:22:51;;;;;;;;;;;23.40;63.30;;;;;;6174548;22;19916;-84
2022/06/09 15:25:43;;;;;;;;;;;23.50;60.20;;;;;;6174061;22;19916;-85
2022/06/09 15:28:30;;;;;;;;;;;23.30;54.20;;;;;;6166571;23;19917;-82
2022/06/09 15:31:17;;;;;;;;;;;21.80;57.10;;;;;;6143145;23;19917;-85
2022/06/09 15:34:04;;;;;;;;;;;21.80;56.80;;;;;;6161828;23;19916;-85
2022/06/09 15:36:56;;;;;;;;;;;21.90;64.70;;;;;;6164344;23;20061;-88
2022/06/09 15:39:48;;;;;;;;;;;22.20;60.30;;;;;;6163025;23;19916;-86
2022/06/09 15:46:45;;;;;;;;;;;21.70;63.70;;;;;;6162908;23;19928;-87
2022/06/09 15:49:47;;;;;;;;;;;21.00;66.40;;;;;;6151013;23;19966;-86
2022/06/09 15:52:34;;;;;;;;;;;20.30;68.20;;;;;;6149458;23;19917;-85
2022/06/09 15:55:21;;;;;;;;;;;19.90;72.10;;;;;;6151262;23;19991;-89
2022/06/09 15:58:09;;;;;;;;;;;19.60;73.90;;;;;;6150583;23;19917;-88
2022/06/09 16:00:57;;;;;;;;;;;19.20;79.50;;;;;;6149711;23;19932;-83
2022/06/09 16:03:45;;;;;;;;;;;18.60;84.90;;;;;;6152962;23;19925;-85
2022/06/09 16:06:33;;;;;;;;;;;18.30;93.70;;;;;;6233835;22;19920;-85
2022/06/09 16:09:23;;;;;;;;;;;18.10;99.90;;;;;;6230394;22;20300;-84
2022/06/09 16:12:11;;;;;;;;;;;18.10;98.90;;;;;;6151173;23;19920;-82
2022/06/09 16:14:58;;;;;;;;;;;18.20;99.90;;;;;;6151062;23;19928;-87
2022/06/09 16:17:45;;;;;;;;;;;18.10;98.10;;;;;;6149046;23;19924;-87
2022/06/09 16:20:34;;;;;;;;;;;18.10;95.30;;;;;;6149569;23;19927;-85